Hlavní strana
METAR-TAF:

METAR-TAF

Letiště :

Gafsa, Tunisko

zeměpisná šířka: 34-25N, zeměpisná délka: 008-49E, výška: 313 m

Aktuální stav počasí

Zpráva byla vytvořena před 1 hodinou a 3 minutami, v 08:00 UTC
Severní vítr 4 kt, proměnlivý mezi severozápadním a východoseverovýchodním
Teplota 17°C
Vlhkost vzduchu 48%
Tlak 1021 hPa
Viditelnost: 8000 m
Polojasno ve výšce 3300 ft

METAR: DTTF 100800Z 01004KT 320V060 8000 SCT033 17/06 Q1021

Čas: 10:03 (09:03 UTC)

Předpověď počasí

Zpráva byla vytvořena před 3 hodinami a 3 minutami, v 06:00 UTC
Předpověď platná od 10 v 07 UTC do 10 v 16 UTC
Severovýchodní vítr 5 kt
Viditelnost: 8000 m
Polojasno ve výšce 2600 ft

TAF: DTTF 100600Z 1007/1016 04005KT 8000 SCT026

Stav a předpovědi počasí z více než 4 000 letišť (zprávy METAR a TAF).

Červené a žluté tečky na mapě představují dostupné meteorologické stanice.

Když kurzor umístíte na tečku, zobrazí se název stanice.

Pak kliknutím zobrazíte stav a předpověď počasí.

Chcete-li změnit mapu, kliknutím na zelené tlačítko se znaménkem +mapu přiblížíte, kliknutím na zelené tlačítko se znaménkem – mapu oddálíte a kliknutím na zelené šipky přejdete na sousední mapy.


METAR-TAF: